THUNDERSTORM

Not for real navigation. The accuracy of this data is not assured See disclaimer for more information



ICAO NAME COUNTRY WIND Kt GUST Kt VIS m TEMP/DEW C BARO METAR
KOWD NORWOOD MEMORIAL AIRPORT MA United States 0 0 400 10/8 30.08 KOWD 220853Z AUTO 00000KT 0.25SM FG VV002 10/08 A3008 RMK AO2 SLP185 T01000078 58010 TS
VTUO 28 41 1500 26/24 29.71 VTUO 220900Z 04028G41KT 1500 +TSRA SCT020CB BKN030 26/24 Q1006 BECMG FM0945 TL1020 04018G30KT 3500 T
KPQI Presque Isle ME United States 0 0 1600 4/4 30.18 KPQI 220942Z AUTO 00000KT 1 0.25SM BR SCT001 BKN035 04/04 A3018 RMK AO2 TS
KORE Orange, Orange Municipal Airpo MA United States 0 0 1600 11/10 30.10 KORE 220936Z AUTO 00000KT 1 0.75SM BR FEW003 OVC012 11/10 A3010 RMK AO2 T01110100 TS
PAKT KETCHIKAN INTERNATIONAL AIRPOR AK United States 20 30 3200 7/6 29.47 PAKT 220928Z AUTO 14020G30KT 2SM RA BR FEW018 OVC025 07/06 A2947 RMK AO2 PK WND 13041/0901 P0007 T00

Show more